Time;durP1;ratioP1;P1;durP2;ratioP2;P2;SDS_P1;SDS_P2;PMS_P1;PMS_P2;Temp;Humidity;BMP_temperature;BMP_pressure;BME280_temperature;BME280_humidity;BME280_pressure;Samples;Min_cycle;Max_cycle;Signal;HPM_P1;HPM_P2
2022/11/12 00:02:40;;;;;;;14.03;11.27;;;11.10;99.90;;;;;;5023243;28;20335;-49
2022/11/12 00:05:26;;;;;;;14.40;10.90;;;11.10;99.90;;;;;;5022636;28;20678;-53
2022/11/12 00:08:12;;;;;;;16.77;11.33;;;11.10;99.90;;;;;;5011120;28;20277;-53
2022/11/12 00:10:58;;;;;;;16.17;12.70;;;11.00;99.90;;;;;;5009076;28;20218;-49
2022/11/12 00:13:43;;;;;;;18.27;12.67;;;11.00;99.90;;;;;;5023882;28;20947;-52
2022/11/12 00:16:30;;;;;;;16.67;11.70;;;11.00;99.90;;;;;;5003843;28;20238;-51
2022/11/12 00:19:16;;;;;;;16.97;12.43;;;11.00;99.90;;;;;;5024748;28;20211;-51
2022/11/12 00:22:02;;;;;;;15.03;10.37;;;10.90;99.90;;;;;;5025628;28;20211;-49
2022/11/12 00:24:47;;;;;;;14.93;11.57;;;10.90;99.90;;;;;;5014129;28;20281;-48
2022/11/12 00:27:34;;;;;;;18.93;12.90;;;10.90;99.90;;;;;;5022103;28;20937;-52
2022/11/12 00:30:20;;;;;;;20.80;11.60;;;10.90;99.90;;;;;;5016230;28;20694;-54
2022/11/12 00:33:08;;;;;;;16.93;11.83;;;10.90;99.90;;;;;;5019818;28;20238;-51
2022/11/12 00:35:54;;;;;;;17.17;12.23;;;10.90;99.90;;;;;;5025686;28;20215;-54
2022/11/12 00:38:40;;;;;;;20.67;12.83;;;10.80;99.90;;;;;;5008663;28;20223;-50
2022/11/12 00:41:25;;;;;;;21.07;12.80;;;10.80;99.90;;;;;;5013983;28;20223;-42
2022/11/12 00:44:11;;;;;;;17.93;12.60;;;10.80;99.90;;;;;;5024007;28;20798;-42
2022/11/12 00:46:57;;;;;;;19.23;11.87;;;10.80;99.90;;;;;;5017697;28;20219;-42
2022/11/12 00:49:44;;;;;;;17.87;11.90;;;10.80;99.90;;;;;;5019721;28;20230;-42
2022/11/12 00:52:30;;;;;;;19.40;12.60;;;10.80;99.90;;;;;;5021130;28;20797;-43
2022/11/12 00:55:16;;;;;;;16.83;12.00;;;10.80;99.90;;;;;;5007637;28;20215;-43
2022/11/12 00:58:01;;;;;;;15.87;11.63;;;10.80;99.90;;;;;;5019840;28;20206;-42
2022/11/12 01:00:47;;;;;;;16.60;11.73;;;10.80;99.90;;;;;;5024099;28;20214;-43
2022/11/12 01:03:33;;;;;;;15.47;11.73;;;10.90;99.90;;;;;;5012730;28;20234;-45
2022/11/12 01:06:22;;;;;;;18.77;12.37;;;10.90;99.90;;;;;;5023240;28;20207;-42
2022/11/12 01:09:08;;;;;;;21.83;12.23;;;10.80;99.90;;;;;;5025043;28;20273;-41
2022/11/12 01:11:54;;;;;;;16.03;11.03;;;10.80;99.90;;;;;;5007622;28;20215;-41
2022/11/12 01:14:40;;;;;;;16.10;11.23;;;10.90;99.90;;;;;;5021924;28;20235;-41
2022/11/12 01:17:26;;;;;;;14.67;10.53;;;10.80;99.90;;;;;;5005931;28;20215;-46
2022/11/12 01:20:12;;;;;;;16.70;11.43;;;10.80;99.90;;;;;;5015743;28;20691;-45
2022/11/12 01:22:59;;;;;;;14.30;10.47;;;10.80;99.90;;;;;;5024432;28;20722;-42
2022/11/12 01:25:45;;;;;;;17.33;10.50;;;10.80;99.90;;;;;;5002014;28;20430;-42
2022/11/12 01:28:30;;;;;;;14.30;10.60;;;10.90;99.90;;;;;;5020576;28;20203;-42
2022/11/12 01:31:18;;;;;;;13.70;11.10;;;10.90;99.90;;;;;;5023531;28;20207;-43
2022/11/12 01:34:07;;;;;;;17.73;11.30;;;10.80;99.90;;;;;;5014468;28;20321;-42
2022/11/12 01:36:53;;;;;;;14.23;10.60;;;10.80;99.90;;;;;;5024742;28;20269;-41
2022/11/12 01:39:41;;;;;;;16.27;10.10;;;10.90;99.90;;;;;;5021050;28;20346;-41
2022/11/12 01:42:29;;;;;;;19.27;10.20;;;10.80;99.90;;;;;;4992303;28;20807;-42
2022/11/12 01:45:15;;;;;;;16.23;11.30;;;10.80;99.90;;;;;;5022879;28;20215;-42
2022/11/12 01:48:01;;;;;;;16.37;9.43;;;10.80;99.90;;;;;;5024550;28;20207;-42
2022/11/12 01:50:48;;;;;;;16.20;10.20;;;10.80;99.90;;;;;;5008548;28;20211;-44
2022/11/12 01:53:46;;;;;;;13.27;9.23;;;10.80;99.90;;;;;;5016079;28;20231;-42
2022/11/12 01:56:33;;;;;;;13.13;9.40;;;10.80;99.90;;;;;;5004184;28;20944;-44
2022/11/12 01:59:25;;;;;;;14.40;9.73;;;10.80;99.90;;;;;;5012587;28;20288;-42
2022/11/12 02:02:11;;;;;;;14.43;9.90;;;10.80;99.90;;;;;;5022883;28;20581;-44
2022/11/12 02:04:57;;;;;;;12.53;9.43;;;10.80;99.90;;;;;;5016623;28;20309;-42
2022/11/12 02:07:45;;;;;;;14.43;9.47;;;10.80;99.90;;;;;;5021877;28;20207;-43
2022/11/12 02:10:30;;;;;;;15.97;9.60;;;10.80;99.90;;;;;;5017914;28;20226;-43
2022/11/12 02:16:22;;;;;;;14.20;9.43;;;10.80;99.90;;;;;;5018173;28;20210;-42
2022/11/12 02:19:11;;;;;;;12.07;8.60;;;10.80;99.90;;;;;;5023620;28;20210;-43
2022/11/12 02:21:58;;;;;;;10.67;7.80;;;10.70;99.90;;;;;;5016252;28;20215;-41
2022/11/12 02:24:44;;;;;;;10.90;8.93;;;10.70;99.90;;;;;;5021754;28;20321;-41
2022/11/12 02:27:29;;;;;;;14.30;8.80;;;10.70;99.90;;;;;;4998699;28;20219;-41
2022/11/12 02:30:16;;;;;;;11.87;8.83;;;10.60;99.90;;;;;;5018311;28;20222;-45
2022/11/12 02:33:02;;;;;;;13.30;8.93;;;10.60;99.90;;;;;;5023156;28;20301;-41
2022/11/12 02:35:48;;;;;;;14.10;8.70;;;10.50;99.90;;;;;;5014882;28;20583;-42
2022/11/12 02:38:35;;;;;;;13.10;8.47;;;10.50;99.90;;;;;;5019895;28;20280;-43
2022/11/12 02:41:21;;;;;;;12.83;8.13;;;10.50;99.90;;;;;;5009616;28;20207;-41
2022/11/12 02:44:07;;;;;;;11.20;7.77;;;10.40;99.90;;;;;;5012521;28;20231;-42
2022/11/12 02:46:52;;;;;;;11.93;8.37;;;10.30;99.90;;;;;;5020003;28;20683;-42
2022/11/12 02:49:38;;;;;;;13.43;8.13;;;10.20;99.90;;;;;;5019802;28;20316;-42
2022/11/12 02:52:24;;;;;;;14.93;8.83;;;10.10;99.90;;;;;;5012207;28;20222;-43
2022/11/12 02:55:12;;;;;;;11.40;8.10;;;10.10;99.90;;;;;;5023162;28;20219;-42
2022/11/12 02:57:58;;;;;;;13.00;8.23;;;10.00;99.90;;;;;;5008530;28;20211;-40
2022/11/12 03:00:44;;;;;;;11.40;8.90;;;9.90;99.90;;;;;;5017520;28;20230;-43
2022/11/12 03:03:30;;;;;;;11.20;8.33;;;9.70;99.90;;;;;;5018908;28;20234;-42
2022/11/12 03:06:15;;;;;;;10.87;7.90;;;9.60;99.90;;;;;;5018233;28;20211;-41
2022/11/12 03:09:01;;;;;;;14.53;9.10;;;9.60;99.90;;;;;;5020102;28;20235;-43
2022/11/12 03:11:48;;;;;;;13.30;8.23;;;9.60;99.90;;;;;;5021021;28;20206;-41
2022/11/12 03:14:34;;;;;;;11.77;8.33;;;9.50;99.90;;;;;;5004298;28;20386;-42
2022/11/12 03:17:20;;;;;;;15.20;9.23;;;9.40;99.90;;;;;;5020209;28;20211;-42
2022/11/12 03:20:06;;;;;;;13.90;8.40;;;9.30;99.90;;;;;;5023254;28;20207;-40
2022/11/12 03:22:56;;;;;;;17.27;9.77;;;9.30;99.90;;;;;;5011599;28;20204;-41
2022/11/12 03:25:42;;;;;;;11.33;8.43;;;9.20;99.90;;;;;;5020442;28;20258;-40
2022/11/12 03:28:29;;;;;;;12.70;8.57;;;9.10;99.90;;;;;;5004292;28;20318;-41
2022/11/12 03:31:15;;;;;;;16.47;10.00;;;9.10;99.90;;;;;;5017620;28;20694;-42
2022/11/12 03:34:01;;;;;;;16.53;10.10;;;9.10;99.90;;;;;;5022647;28;20227;-43
2022/11/12 03:36:47;;;;;;;11.10;9.10;;;9.10;99.90;;;;;;5022004;28;20266;-45
2022/11/12 03:39:32;;;;;;;12.23;9.33;;;9.10;99.90;;;;;;5006877;28;20215;-44
2022/11/12 03:42:18;;;;;;;14.77;10.20;;;9.00;99.90;;;;;;5008873;28;20615;-47
2022/11/12 03:45:06;;;;;;;14.30;10.10;;;9.00;99.90;;;;;;5014122;28;20227;-45
2022/11/12 03:47:54;;;;;;;11.37;9.50;;;8.90;99.90;;;;;;5015659;28;20199;-45
2022/11/12 03:50:39;;;;;;;14.60;10.50;;;8.80;99.90;;;;;;5008943;28;20826;-45
2022/11/12 03:53:26;;;;;;;10.80;9.70;;;8.90;99.90;;;;;;5015833;28;20341;-49
2022/11/12 03:56:11;;;;;;;14.20;10.37;;;8.90;99.90;;;;;;5010562;28;20222;-49
2022/11/12 03:58:56;;;;;;;12.50;9.87;;;8.80;99.90;;;;;;5022975;28;20702;-44
2022/11/12 04:01:43;;;;;;;15.90;10.33;;;8.80;99.90;;;;;;5012612;28;20257;-44
2022/11/12 04:10:33;;;;;;;12.90;9.10;;;8.80;99.90;;;;;;5014417;28;20509;-45
2022/11/12 04:13:28;;;;;;;13.33;9.57;;;8.60;99.90;;;;;;5014626;28;20227;-48
2022/11/12 04:22:23;;;;;;;12.30;9.47;;;8.50;99.90;;;;;;5017538;28;20633;-47
2022/11/12 04:28:12;;;;;;;11.90;9.70;;;8.50;99.90;;;;;;5025271;28;20203;-48
2022/11/12 04:30:57;;;;;;;12.50;9.37;;;8.50;99.90;;;;;;5026158;28;20293;-45
2022/11/12 04:33:43;;;;;;;12.50;9.70;;;8.40;99.90;;;;;;5019648;28;20222;-44
2022/11/12 04:36:30;;;;;;;16.30;10.03;;;8.40;99.90;;;;;;5012984;28;20210;-44
2022/11/12 04:39:16;;;;;;;11.50;10.13;;;8.30;99.90;;;;;;5022195;28;20619;-47
2022/11/12 04:45:09;;;;;;;13.50;10.17;;;8.30;99.90;;;;;;5025767;28;20215;-43
2022/11/12 04:47:54;;;;;;;13.70;10.20;;;8.20;99.90;;;;;;5007881;28;20691;-49
2022/11/12 04:50:42;;;;;;;15.17;10.77;;;8.20;99.90;;;;;;5018483;28;20366;-43
2022/11/12 04:53:31;;;;;;;12.97;9.73;;;8.20;99.90;;;;;;5021562;28;20305;-44
2022/11/12 04:56:16;;;;;;;13.40;9.60;;;8.20;99.90;;;;;;5019036;28;20219;-46
2022/11/12 04:59:02;;;;;;;13.90;10.27;;;8.10;99.90;;;;;;5025550;28;20211;-45
2022/11/12 05:01:48;;;;;;;17.23;10.67;;;8.00;99.90;;;;;;5024555;28;20578;-47
2022/11/12 05:04:34;;;;;;;14.23;10.27;;;8.00;99.90;;;;;;5012162;28;20330;-47
2022/11/12 05:07:19;;;;;;;14.17;10.30;;;8.00;99.90;;;;;;5013087;28;20215;-48
2022/11/12 05:10:08;;;;;;;14.57;11.13;;;7.90;99.90;;;;;;5021288;28;20285;-44
2022/11/12 05:12:54;;;;;;;14.93;11.27;;;7.70;99.90;;;;;;5010275;28;20351;-45
2022/11/12 05:15:39;;;;;;;15.43;11.13;;;7.80;99.90;;;;;;5016854;28;20301;-44
2022/11/12 05:18:25;;;;;;;14.00;9.87;;;7.80;99.90;;;;;;5013930;28;20207;-46
2022/11/12 05:24:13;;;;;;;17.33;10.80;;;7.70;99.90;;;;;;5022106;28;20281;-44
2022/11/12 05:27:01;;;;;;;15.43;10.60;;;7.70;99.90;;;;;;5014606;28;20223;-44
2022/11/12 05:29:46;;;;;;;16.07;10.47;;;7.70;99.90;;;;;;5022987;28;21007;-44
2022/11/12 05:32:32;;;;;;;17.30;10.77;;;7.70;99.90;;;;;;5020559;28;20346;-44
2022/11/12 05:35:18;;;;;;;11.13;9.43;;;7.70;99.90;;;;;;5012852;28;20219;-48
2022/11/12 05:38:03;;;;;;;13.83;10.10;;;7.70;99.90;;;;;;5024749;28;20218;-43
2022/11/12 05:40:49;;;;;;;12.83;9.67;;;7.70;99.90;;;;;;5023383;28;20207;-43
2022/11/12 05:43:36;;;;;;;12.87;10.10;;;7.70;99.90;;;;;;5017365;28;20230;-48
2022/11/12 05:46:23;;;;;;;14.43;9.93;;;7.70;99.90;;;;;;5022018;28;20207;-45
2022/11/12 05:49:09;;;;;;;12.07;9.90;;;7.50;99.90;;;;;;5008389;28;20215;-46
2022/11/12 05:51:55;;;;;;;12.73;10.50;;;7.40;99.90;;;;;;5020684;28;20754;-44
2022/11/12 05:54:40;;;;;;;13.00;10.37;;;7.40;99.90;;;;;;5021883;28;20997;-45
2022/11/12 05:57:26;;;;;;;14.00;10.13;;;7.30;99.90;;;;;;5017696;28;20281;-47
2022/11/12 06:00:15;;;;;;;15.50;10.77;;;7.30;99.90;;;;;;5012924;28;20211;-44
2022/11/12 06:03:01;;;;;;;14.23;10.50;;;7.20;99.90;;;;;;5009929;28;20950;-46
2022/11/12 06:05:46;;;;;;;17.10;10.97;;;7.20;99.90;;;;;;5000188;28;20223;-46
2022/11/12 06:08:32;;;;;;;14.20;9.83;;;7.20;99.90;;;;;;5017121;28;20231;-51
2022/11/12 06:11:17;;;;;;;13.70;9.90;;;7.10;99.90;;;;;;5007244;28;20727;-45
2022/11/12 06:14:04;;;;;;;16.23;10.70;;;7.10;99.90;;;;;;5013624;28;21140;-44
2022/11/12 06:16:51;;;;;;;14.90;10.83;;;7.00;99.90;;;;;;5016156;28;20211;-48
2022/11/12 06:19:37;;;;;;;15.87;11.07;;;6.90;99.90;;;;;;5010801;28;20211;-44
2022/11/12 06:22:23;;;;;;;14.77;10.20;;;6.90;99.90;;;;;;5017792;28;20223;-46
2022/11/12 06:25:09;;;;;;;14.30;10.90;;;6.90;99.90;;;;;;5010055;28;20864;-44
2022/11/12 06:27:54;;;;;;;13.00;9.53;;;6.80;99.90;;;;;;5012746;28;20297;-44
2022/11/12 06:30:40;;;;;;;15.30;10.70;;;6.70;99.90;;;;;;5014730;28;20710;-48
2022/11/12 06:33:27;;;;;;;11.67;9.87;;;6.70;99.90;;;;;;5010398;28;20227;-46
2022/11/12 06:36:15;;;;;;;15.10;10.53;;;6.60;99.90;;;;;;5005409;28;20291;-44
2022/11/12 06:39:01;;;;;;;14.00;10.70;;;6.60;99.90;;;;;;5012078;28;20561;-47
2022/11/12 06:41:47;;;;;;;15.17;10.43;;;6.60;99.90;;;;;;5007053;28;20219;-46
2022/11/12 06:44:33;;;;;;;13.60;10.07;;;6.50;99.90;;;;;;5002308;28;20364;-48
2022/11/12 06:47:18;;;;;;;13.80;9.83;;;6.60;99.90;;;;;;5016507;28;20338;-45
2022/11/12 06:50:05;;;;;;;10.87;9.63;;;6.60;99.90;;;;;;5013553;28;20233;-46
2022/11/12 06:52:51;;;;;;;11.90;9.90;;;6.50;99.90;;;;;;4999737;28;20215;-44
2022/11/12 06:55:36;;;;;;;10.70;8.77;;;6.50;99.90;;;;;;5011447;28;20569;-50
2022/11/12 06:58:22;;;;;;;14.93;9.03;;;6.40;99.90;;;;;;5009903;28;20358;-47
2022/11/12 07:01:09;;;;;;;12.13;10.03;;;6.30;99.90;;;;;;5010315;28;20215;-44
2022/11/12 07:03:55;;;;;;;13.53;9.27;;;6.40;99.90;;;;;;5002580;28;20314;-44
2022/11/12 07:06:42;;;;;;;14.17;9.90;;;6.40;99.90;;;;;;5001050;28;20378;-46
2022/11/12 07:09:28;;;;;;;12.93;9.80;;;6.40;99.90;;;;;;5011061;28;20306;-51
2022/11/12 07:12:14;;;;;;;14.80;10.10;;;6.30;99.90;;;;;;5013889;28;20227;-44
2022/11/12 07:14:59;;;;;;;12.53;9.53;;;6.40;99.90;;;;;;5012144;28;20251;-44
2022/11/12 07:17:46;;;;;;;13.57;9.40;;;6.40;99.90;;;;;;5007673;28;20214;-44
2022/11/12 07:20:31;;;;;;;12.80;9.83;;;6.50;99.90;;;;;;5007584;28;20262;-44
2022/11/12 07:23:19;;;;;;;11.00;8.80;;;6.40;99.90;;;;;;5006723;28;20895;-45
2022/11/12 07:26:06;;;;;;;14.53;10.30;;;6.40;99.90;;;;;;5010854;28;20211;-44
2022/11/12 07:28:55;;;;;;;15.40;9.90;;;6.40;99.90;;;;;;5011124;28;21314;-44
2022/11/12 07:31:41;;;;;;;14.17;10.00;;;6.50;99.90;;;;;;5011634;28;20386;-45
2022/11/12 07:34:26;;;;;;;13.60;10.30;;;6.50;99.90;;;;;;5014840;28;20320;-46
2022/11/12 07:37:12;;;;;;;14.50;9.83;;;6.50;99.90;;;;;;5016861;28;20257;-46
2022/11/12 07:39:59;;;;;;;15.43;10.23;;;6.50;99.90;;;;;;5019533;28;20207;-46
2022/11/12 07:42:45;;;;;;;12.80;10.17;;;6.60;99.90;;;;;;5011531;28;20215;-44
2022/11/12 07:45:30;;;;;;;15.00;10.30;;;6.70;99.90;;;;;;5001713;28;20293;-49
2022/11/12 07:48:16;;;;;;;17.03;10.97;;;6.70;99.90;;;;;;5013837;28;20210;-48
2022/11/12 07:51:04;;;;;;;15.97;10.83;;;6.70;99.90;;;;;;5001854;28;20231;-46
2022/11/12 07:53:52;;;;;;;13.70;10.63;;;6.80;99.90;;;;;;5007899;28;20234;-50
2022/11/12 07:56:39;;;;;;;16.30;11.50;;;6.90;99.90;;;;;;5011003;28;20235;-47
2022/11/12 07:59:24;;;;;;;13.90;10.40;;;6.90;99.90;;;;;;5014808;28;20202;-47
2022/11/12 08:02:10;;;;;;;14.73;10.87;;;6.90;99.90;;;;;;5006222;28;20269;-45
2022/11/12 08:04:56;;;;;;;15.77;10.60;;;7.00;99.90;;;;;;5009752;28;20390;-48
2022/11/12 08:07:41;;;;;;;11.63;9.07;;;7.10;99.90;;;;;;5005271;28;20227;-48
2022/11/12 08:10:27;;;;;;;14.43;9.87;;;7.20;99.90;;;;;;5008628;28;20258;-44
2022/11/12 08:13:14;;;;;;;13.17;10.43;;;7.20;99.90;;;;;;5018806;28;20840;-44
2022/11/12 08:16:00;;;;;;;15.80;10.93;;;7.20;99.90;;;;;;5010648;28;20214;-46
2022/11/12 08:18:46;;;;;;;15.40;10.57;;;7.30;99.90;;;;;;5013046;28;20786;-45
2022/11/12 08:21:31;;;;;;;13.27;10.03;;;7.40;99.90;;;;;;5013811;28;20208;-46
2022/11/12 08:24:17;;;;;;;13.37;10.80;;;7.50;99.90;;;;;;5001775;28;21302;-43
2022/11/12 08:27:02;;;;;;;16.00;11.43;;;7.50;99.90;;;;;;5004364;28;20279;-47
2022/11/12 08:29:49;;;;;;;19.43;11.43;;;7.60;99.90;;;;;;5021404;28;20215;-46
2022/11/12 08:32:35;;;;;;;15.83;10.70;;;7.70;99.90;;;;;;5011086;28;20260;-45
2022/11/12 08:35:20;;;;;;;16.87;11.30;;;7.80;99.90;;;;;;5019360;28;20227;-49
2022/11/12 08:38:09;;;;;;;18.90;12.27;;;7.90;99.90;;;;;;5019735;28;20581;-45
2022/11/12 08:40:54;;;;;;;20.27;13.50;;;8.00;99.90;;;;;;5006049;28;20211;-46
2022/11/12 08:43:41;;;;;;;14.73;11.03;;;8.20;99.90;;;;;;5016880;28;20277;-45
2022/11/12 08:46:29;;;;;;;19.87;11.50;;;8.40;99.90;;;;;;5002555;28;20309;-46
2022/11/12 08:49:15;;;;;;;14.67;11.60;;;8.60;99.90;;;;;;5012979;28;20242;-45
2022/11/12 08:52:00;;;;;;;16.33;12.47;;;8.80;99.90;;;;;;5016921;28;20272;-49
2022/11/12 08:54:46;;;;;;;15.90;12.73;;;9.00;99.90;;;;;;5012275;28;20898;-48
2022/11/12 08:57:31;;;;;;;17.37;12.50;;;9.10;99.90;;;;;;4995652;28;20227;-45
2022/11/12 09:00:18;;;;;;;16.10;11.70;;;9.10;99.90;;;;;;5015481;28;20203;-45
2022/11/12 09:03:07;;;;;;;18.33;12.50;;;9.20;99.90;;;;;;5006034;28;20283;-47
2022/11/12 09:05:54;;;;;;;18.40;11.60;;;9.30;99.90;;;;;;5014001;28;20207;-55
2022/11/12 09:08:39;;;;;;;16.87;11.87;;;9.30;99.90;;;;;;5017840;28;20690;-46
2022/11/12 09:11:25;;;;;;;16.67;11.47;;;9.40;99.90;;;;;;4996533;28;20239;-45
2022/11/12 09:14:11;;;;;;;18.47;13.93;;;9.50;99.90;;;;;;5003679;28;20255;-46
2022/11/12 09:16:56;;;;;;;20.70;12.47;;;9.60;99.90;;;;;;5016367;28;20242;-50
2022/11/12 09:19:44;;;;;;;15.97;11.57;;;9.70;99.90;;;;;;5015471;28;20211;-48
2022/11/12 09:22:31;;;;;;;15.97;12.20;;;9.70;99.90;;;;;;5012910;28;20202;-47
2022/11/12 09:25:17;;;;;;;19.37;12.03;;;9.80;99.90;;;;;;5011714;28;20270;-50
2022/11/12 09:28:07;;;;;;;15.87;11.83;;;9.90;99.90;;;;;;5004813;28;20226;-47
2022/11/12 09:30:54;;;;;;;14.30;11.03;;;10.00;99.90;;;;;;5007153;28;20227;-45
2022/11/12 09:33:40;;;;;;;18.83;11.90;;;10.10;99.90;;;;;;5010042;28;20230;-49
2022/11/12 09:36:27;;;;;;;13.03;10.40;;;10.30;99.90;;;;;;5011234;28;20354;-52
2022/11/12 09:39:13;;;;;;;15.10;11.43;;;10.30;99.90;;;;;;5013362;28;20318;-49
2022/11/12 09:41:59;;;;;;;17.63;10.80;;;10.40;99.90;;;;;;5006520;28;20357;-45
2022/11/12 09:44:56;;;;;;;14.00;10.00;;;10.50;99.90;;;;;;5002360;28;20923;-49
2022/11/12 09:47:46;;;;;;;13.63;10.80;;;10.60;99.90;;;;;;5017125;28;20205;-49
2022/11/12 09:50:37;;;;;;;13.87;10.93;;;10.60;99.90;;;;;;5008346;28;20204;-46
2022/11/12 09:53:32;;;;;;;16.03;10.90;;;10.70;99.90;;;;;;5016662;28;20815;-46
2022/11/12 09:56:20;;;;;;;16.30;11.93;;;10.80;99.90;;;;;;5016241;28;20230;-50
2022/11/12 09:59:11;;;;;;;14.10;10.73;;;10.90;99.90;;;;;;5007317;28;20357;-46
2022/11/12 10:02:04;;;;;;;17.50;10.57;;;11.00;99.90;;;;;;5008646;28;20687;-47
2022/11/12 10:05:17;;;;;;;14.83;10.83;;;11.00;99.90;;;;;;5013950;28;20257;-46
2022/11/12 10:08:17;;;;;;;14.90;10.60;;;11.10;99.90;;;;;;5012410;28;20211;-45
2022/11/12 10:11:16;;;;;;;15.13;10.40;;;11.20;99.90;;;;;;5015343;28;20227;-46
2022/11/12 10:14:13;;;;;;;13.03;10.30;;;11.10;99.90;;;;;;4997409;28;20239;-45
2022/11/12 10:17:07;;;;;;;14.50;10.10;;;11.20;99.90;;;;;;5007309;28;20234;-47
2022/11/12 10:20:06;;;;;;;13.30;9.90;;;11.20;99.90;;;;;;5011857;28;20319;-50
2022/11/12 10:23:12;;;;;;;13.47;10.00;;;11.30;99.90;;;;;;5006880;28;20203;-48
2022/11/12 10:26:01;;;;;;;18.43;10.73;;;11.30;99.90;;;;;;5004979;28;20321;-49
2022/11/12 10:28:52;;;;;;;15.00;10.10;;;11.40;99.90;;;;;;5008067;28;20227;-46
2022/11/12 10:31:39;;;;;;;15.93;10.13;;;11.50;99.90;;;;;;5016112;28;20266;-48
2022/11/12 10:34:25;;;;;;;14.23;9.93;;;11.50;99.90;;;;;;5009192;28;20301;-45
2022/11/12 10:37:14;;;;;;;15.63;9.73;;;11.60;99.90;;;;;;5018092;28;20281;-45
2022/11/12 10:40:30;;;;;;;14.23;10.57;;;11.70;99.90;;;;;;5007553;28;20394;-48
2022/11/12 10:43:23;;;;;;;18.87;10.53;;;11.80;99.90;;;;;;5014651;28;20231;-46
2022/11/12 10:46:19;;;;;;;12.67;9.67;;;11.80;99.90;;;;;;5001038;28;20219;-48
2022/11/12 10:49:06;;;;;;;15.33;11.30;;;11.90;99.90;;;;;;5003204;28;20273;-45
2022/11/12 10:51:56;;;;;;;14.30;9.70;;;11.90;99.90;;;;;;5013259;28;20282;-48
2022/11/12 10:54:42;;;;;;;13.43;10.53;;;11.90;99.90;;;;;;5010830;28;20239;-50
2022/11/12 10:57:30;;;;;;;14.73;9.50;;;11.90;99.90;;;;;;5011757;28;20213;-48
2022/11/12 11:00:19;;;;;;;13.67;10.40;;;12.00;99.90;;;;;;5015523;28;20249;-47
2022/11/12 11:03:15;;;;;;;16.30;10.60;;;12.00;99.90;;;;;;5003897;28;20227;-45
2022/11/12 11:06:03;;;;;;;13.17;9.93;;;12.10;99.90;;;;;;5011862;28;20215;-45
2022/11/12 11:08:50;;;;;;;12.43;9.40;;;12.10;99.90;;;;;;5018819;28;20215;-47
2022/11/12 11:11:36;;;;;;;12.53;9.80;;;12.20;99.90;;;;;;5006143;28;20558;-47
2022/11/12 11:14:32;;;;;;;17.80;9.50;;;12.20;99.90;;;;;;5010360;28;20234;-50
2022/11/12 11:17:19;;;;;;;14.30;9.90;;;12.20;99.90;;;;;;5001810;28;20627;-48
2022/11/12 11:20:05;;;;;;;13.00;9.10;;;12.30;99.90;;;;;;5012534;28;20218;-46
2022/11/12 11:22:56;;;;;;;12.53;9.30;;;12.30;99.90;;;;;;5015582;28;20615;-46
2022/11/12 11:25:43;;;;;;;14.10;9.07;;;12.40;99.90;;;;;;5016225;28;20230;-51
2022/11/12 11:28:37;;;;;;;13.43;9.67;;;12.50;99.90;;;;;;5007383;28;20203;-45
2022/11/12 11:31:35;;;;;;;13.97;9.73;;;12.50;99.90;;;;;;5013794;28;20215;-47
2022/11/12 11:34:32;;;;;;;11.70;9.07;;;12.60;99.90;;;;;;5000674;28;20979;-43
2022/11/12 11:37:26;;;;;;;11.83;7.77;;;12.60;99.90;;;;;;5012149;28;20277;-45
2022/11/12 11:40:20;;;;;;;13.83;8.20;;;12.70;99.90;;;;;;5016737;28;20962;-44
2022/11/12 11:43:20;;;;;;;9.50;7.63;;;12.80;99.90;;;;;;5009042;28;20242;-46
2022/11/12 11:46:18;;;;;;;10.50;7.57;;;12.90;99.90;;;;;;5005713;28;20576;-48
2022/11/12 11:49:25;;;;;;;8.73;6.90;;;13.00;99.90;;;;;;5007438;28;20343;-47
2022/11/12 11:52:32;;;;;;;9.63;7.10;;;13.00;99.90;;;;;;5005061;28;20951;-41
2022/11/12 11:55:33;;;;;;;11.83;8.13;;;13.10;99.90;;;;;;5015520;28;20214;-42
2022/11/12 11:58:36;;;;;;;9.03;7.30;;;13.10;99.90;;;;;;5018241;28;20744;-41
2022/11/12 12:01:27;;;;;;;10.70;7.40;;;13.10;99.90;;;;;;5015755;28;20907;-42
2022/11/12 12:04:34;;;;;;;11.07;7.00;;;13.20;99.90;;;;;;5002414;28;20309;-41
2022/11/12 12:07:29;;;;;;;9.47;6.47;;;13.30;99.90;;;;;;5009632;28;20207;-41
2022/11/12 12:10:24;;;;;;;20.57;7.43;;;13.40;99.90;;;;;;5014018;28;20378;-40
2022/11/12 12:13:22;;;;;;;11.77;7.10;;;13.50;99.90;;;;;;5005717;28;20983;-43
2022/11/12 12:16:23;;;;;;;11.00;6.80;;;13.40;99.90;;;;;;5001341;28;20234;-39
2022/11/12 12:19:20;;;;;;;10.37;6.40;;;13.50;99.90;;;;;;4995748;28;20219;-41
2022/11/12 12:22:14;;;;;;;9.63;6.70;;;13.50;99.90;;;;;;5009563;28;20355;-40
2022/11/12 12:25:07;;;;;;;7.40;5.80;;;13.40;99.90;;;;;;5011347;28;20226;-40
2022/11/12 12:28:00;;;;;;;8.53;6.63;;;13.40;99.90;;;;;;5016455;28;20207;-39
2022/11/12 12:30:49;;;;;;;13.07;7.93;;;13.30;99.90;;;;;;5021830;28;20230;-39
2022/11/12 12:33:43;;;;;;;11.13;6.60;;;13.30;99.90;;;;;;5014448;28;20265;-41
2022/11/12 12:36:35;;;;;;;8.50;6.33;;;13.20;99.90;;;;;;5005518;28;20354;-40
2022/11/12 12:39:35;;;;;;;7.37;6.20;;;13.20;99.90;;;;;;5015100;28;20937;-40
2022/11/12 12:42:25;;;;;;;8.93;6.77;;;13.10;99.90;;;;;;5014836;28;20850;-42
2022/11/12 12:45:29;;;;;;;9.23;7.33;;;13.10;99.90;;;;;;5001752;28;20262;-42
2022/11/12 12:48:20;;;;;;;8.17;6.73;;;13.10;99.90;;;;;;5004225;28;20392;-40
2022/11/12 12:51:06;;;;;;;7.50;5.47;;;13.00;99.90;;;;;;5004136;28;20219;-40
2022/11/12 12:53:52;;;;;;;7.80;4.73;;;13.00;99.90;;;;;;5012241;28;20242;-42
2022/11/12 12:56:47;;;;;;;6.53;5.27;;;12.90;99.90;;;;;;5018487;28;20576;-39
2022/11/12 12:59:33;;;;;;;9.40;5.80;;;12.90;99.90;;;;;;5002568;28;20212;-40
2022/11/12 13:02:21;;;;;;;9.27;6.20;;;12.90;99.90;;;;;;5017538;28;20206;-41
2022/11/12 13:05:21;;;;;;;8.13;4.63;;;12.90;99.90;;;;;;5003769;28;20226;-40
2022/11/12 13:08:11;;;;;;;8.50;5.00;;;12.90;99.90;;;;;;5010954;28;20220;-42
2022/11/12 13:10:58;;;;;;;7.13;5.07;;;12.90;99.90;;;;;;5011307;28;20345;-42
2022/11/12 13:13:45;;;;;;;11.80;6.10;;;12.80;99.90;;;;;;5011808;28;20258;-41
2022/11/12 13:16:58;;;;;;;10.77;6.60;;;12.80;99.90;;;;;;5009519;28;20223;-39
2022/11/12 13:19:46;;;;;;;10.03;6.00;;;12.80;99.90;;;;;;5007191;28;20210;-43
2022/11/12 13:22:50;;;;;;;11.93;6.57;;;12.70;99.90;;;;;;4989883;28;20575;-39
2022/11/12 13:25:36;;;;;;;7.70;5.50;;;12.70;99.90;;;;;;5011905;28;20216;-40
2022/11/12 13:28:22;;;;;;;7.83;5.47;;;12.70;99.90;;;;;;5017693;28;20600;-41
2022/11/12 13:31:26;;;;;;;8.57;6.40;;;12.80;99.90;;;;;;5008141;28;20283;-40
2022/11/12 13:34:18;;;;;;;8.43;6.37;;;12.70;99.90;;;;;;5010973;28;20724;-43
2022/11/12 13:37:05;;;;;;;7.97;5.80;;;12.80;99.90;;;;;;5007201;28;20223;-39
2022/11/12 13:39:51;;;;;;;6.53;5.63;;;12.80;99.90;;;;;;5010531;28;20933;-45
2022/11/12 13:45:48;;;;;;;9.97;5.87;;;12.70;99.90;;;;;;5001574;28;20214;-41
2022/11/12 13:48:39;;;;;;;5.23;4.73;;;12.70;99.90;;;;;;5002927;28;20278;-41
2022/11/12 13:51:37;;;;;;;8.43;5.60;;;12.80;99.90;;;;;;4989218;28;20338;-41
2022/11/12 13:54:34;;;;;;;8.20;6.00;;;12.80;99.90;;;;;;5004641;28;20251;-41
2022/11/12 13:57:29;;;;;;;8.73;5.90;;;12.80;99.90;;;;;;5005485;28;20207;-49
2022/11/12 14:00:24;;;;;;;8.30;5.50;;;12.70;99.90;;;;;;5009641;28;20922;-49
2022/11/12 14:03:17;;;;;;;10.20;5.77;;;12.70;99.90;;;;;;5001413;28;20232;-39
2022/11/12 14:06:13;;;;;;;9.10;5.77;;;12.70;99.90;;;;;;5007559;28;20971;-40
2022/11/12 14:09:34;;;;;;;6.77;5.63;;;12.70;99.90;;;;;;4989579;28;20223;-41
2022/11/12 14:12:37;;;;;;;9.60;5.10;;;12.80;99.90;;;;;;5020546;28;20379;-42
2022/11/12 14:15:50;;;;;;;11.63;5.60;;;12.80;99.90;;;;;;5013390;28;20265;-41
2022/11/12 14:18:46;;;;;;;9.27;5.73;;;12.70;99.90;;;;;;5009881;28;20215;-44
2022/11/12 14:21:33;;;;;;;7.27;5.10;;;12.70;99.90;;;;;;5012258;28;20630;-41
2022/11/12 14:24:18;;;;;;;9.00;6.03;;;12.80;99.90;;;;;;4999714;28;20240;-40
2022/11/12 14:27:04;;;;;;;8.83;5.93;;;12.70;99.90;;;;;;5010374;28;20338;-41
2022/11/12 14:30:05;;;;;;;8.93;5.60;;;12.70;99.90;;;;;;5013059;28;20285;-42
2022/11/12 14:32:54;;;;;;;5.30;4.70;;;12.70;99.90;;;;;;5004963;28;20270;-40
2022/11/12 14:35:40;;;;;;;8.97;5.30;;;12.70;99.90;;;;;;5012844;28;20270;-41
2022/11/12 14:38:32;;;;;;;8.83;5.27;;;12.60;99.90;;;;;;4996517;28;20219;-40
2022/11/12 14:41:21;;;;;;;8.33;5.43;;;12.60;99.90;;;;;;5000485;28;20631;-40
2022/11/12 14:44:06;;;;;;;8.43;5.87;;;12.50;99.90;;;;;;5014434;28;20210;-45
2022/11/12 14:46:54;;;;;;;14.20;6.33;;;12.40;99.90;;;;;;5017862;28;20210;-40
2022/11/12 14:49:42;;;;;;;10.43;6.27;;;12.40;99.90;;;;;;5012447;28;20242;-42
2022/11/12 14:52:31;;;;;;;17.27;8.53;;;12.30;99.90;;;;;;5018697;28;20793;-42
2022/11/12 14:55:22;;;;;;;11.80;6.93;;;12.20;99.90;;;;;;4992982;28;20295;-41
2022/11/12 14:58:12;;;;;;;11.77;8.13;;;12.20;99.90;;;;;;5010905;28;20223;-44